sensor_id;sensor_type;location;lat;lon;timestamp;temperature;humidity
37782;DHT22;23621;50.878;4.584;2022-08-14T00:00:14;29.20;47.00
37782;DHT22;23621;50.878;4.584;2022-08-14T00:02:40;29.20;47.00
37782;DHT22;23621;50.878;4.584;2022-08-14T00:05:11;29.20;47.20
37782;DHT22;23621;50.878;4.584;2022-08-14T00:07:38;29.20;47.30
37782;DHT22;23621;50.878;4.584;2022-08-14T00:10:06;29.20;47.60
37782;DHT22;23621;50.878;4.584;2022-08-14T00:12:34;29.20;47.70
37782;DHT22;23621;50.878;4.584;2022-08-14T00:15:02;29.10;47.80
37782;DHT22;23621;50.878;4.584;2022-08-14T00:17:29;29.10;47.70
37782;DHT22;23621;50.878;4.584;2022-08-14T00:19:54;29.10;47.50
37782;DHT22;23621;50.878;4.584;2022-08-14T00:22:20;29.10;47.20
37782;DHT22;23621;50.878;4.584;2022-08-14T00:24:46;29.20;46.90
37782;DHT22;23621;50.878;4.584;2022-08-14T00:27:12;29.20;46.80
37782;DHT22;23621;50.878;4.584;2022-08-14T00:29:38;29.20;46.70
37782;DHT22;23621;50.878;4.584;2022-08-14T00:32:04;29.30;46.60
37782;DHT22;23621;50.878;4.584;2022-08-14T00:34:29;29.30;47.40
37782;DHT22;23621;50.878;4.584;2022-08-14T00:36:55;29.30;46.80
37782;DHT22;23621;50.878;4.584;2022-08-14T00:39:20;29.20;46.60
37782;DHT22;23621;50.878;4.584;2022-08-14T00:41:47;29.20;46.70
37782;DHT22;23621;50.878;4.584;2022-08-14T00:44:13;29.20;47.00
37782;DHT22;23621;50.878;4.584;2022-08-14T00:46:39;29.10;47.20
37782;DHT22;23621;50.878;4.584;2022-08-14T00:49:06;29.10;47.40
37782;DHT22;23621;50.878;4.584;2022-08-14T00:51:33;29.00;47.60
37782;DHT22;23621;50.878;4.584;2022-08-14T00:53:59;28.90;47.50
37782;DHT22;23621;50.878;4.584;2022-08-14T00:56:28;28.90;47.50
37782;DHT22;23621;50.878;4.584;2022-08-14T00:58:53;28.80;47.60
37782;DHT22;23621;50.878;4.584;2022-08-14T01:01:23;28.80;47.60
37782;DHT22;23621;50.878;4.584;2022-08-14T01:03:48;28.70;47.70
37782;DHT22;23621;50.878;4.584;2022-08-14T01:06:14;28.60;47.90
37782;DHT22;23621;50.878;4.584;2022-08-14T01:08:43;28.60;48.20
37782;DHT22;23621;50.878;4.584;2022-08-14T01:11:11;28.50;48.10
37782;DHT22;23621;50.878;4.584;2022-08-14T01:13:41;28.40;48.20
37782;DHT22;23621;50.878;4.584;2022-08-14T01:16:11;28.40;48.40
37782;DHT22;23621;50.878;4.584;2022-08-14T01:18:38;28.30;48.60
37782;DHT22;23621;50.878;4.584;2022-08-14T01:23:56;28.20;48.80
37782;DHT22;23621;50.878;4.584;2022-08-14T01:26:23;28.10;48.90
37782;DHT22;23621;50.878;4.584;2022-08-14T01:28:51;28.10;49.00
37782;DHT22;23621;50.878;4.584;2022-08-14T01:31:22;28.00;49.00
37782;DHT22;23621;50.878;4.584;2022-08-14T01:33:50;28.00;49.10
37782;DHT22;23621;50.878;4.584;2022-08-14T01:36:18;27.90;49.30
37782;DHT22;23621;50.878;4.584;2022-08-14T01:38:45;27.80;49.40
37782;DHT22;23621;50.878;4.584;2022-08-14T01:41:15;27.80;49.50
37782;DHT22;23621;50.878;4.584;2022-08-14T01:43:47;27.70;49.80
37782;DHT22;23621;50.878;4.584;2022-08-14T01:46:15;27.60;50.00
37782;DHT22;23621;50.878;4.584;2022-08-14T01:48:41;27.60;50.10
37782;DHT22;23621;50.878;4.584;2022-08-14T01:51:10;27.50;50.10
37782;DHT22;23621;50.878;4.584;2022-08-14T01:53:38;27.50;50.20
37782;DHT22;23621;50.878;4.584;2022-08-14T01:56:04;27.40;50.40
37782;DHT22;23621;50.878;4.584;2022-08-14T01:58:30;27.40;50.40
37782;DHT22;23621;50.878;4.584;2022-08-14T02:00:56;27.30;50.50
37782;DHT22;23621;50.878;4.584;2022-08-14T02:03:28;27.30;50.50
37782;DHT22;23621;50.878;4.584;2022-08-14T02:05:56;27.30;50.50
37782;DHT22;23621;50.878;4.584;2022-08-14T02:08:23;27.30;50.60
37782;DHT22;23621;50.878;4.584;2022-08-14T02:10:53;27.20;50.70
37782;DHT22;23621;50.878;4.584;2022-08-14T02:13:37;27.20;50.80
37782;DHT22;23621;50.878;4.584;2022-08-14T02:16:03;27.20;51.00
37782;DHT22;23621;50.878;4.584;2022-08-14T02:18:29;27.20;51.00
37782;DHT22;23621;50.878;4.584;2022-08-14T02:20:55;27.10;50.80
37782;DHT22;23621;50.878;4.584;2022-08-14T02:23:21;27.10;50.90
37782;DHT22;23621;50.878;4.584;2022-08-14T02:25:48;27.10;51.00
37782;DHT22;23621;50.878;4.584;2022-08-14T02:28:14;27.00;51.00
37782;DHT22;23621;50.878;4.584;2022-08-14T02:30:39;27.00;51.20
37782;DHT22;23621;50.878;4.584;2022-08-14T02:33:05;26.90;51.20
37782;DHT22;23621;50.878;4.584;2022-08-14T02:35:31;26.90;51.20
37782;DHT22;23621;50.878;4.584;2022-08-14T02:37:57;26.90;51.40
37782;DHT22;23621;50.878;4.584;2022-08-14T02:40:23;26.80;51.50
37782;DHT22;23621;50.878;4.584;2022-08-14T02:42:48;26.80;51.60
37782;DHT22;23621;50.878;4.584;2022-08-14T02:45:14;26.70;51.60
37782;DHT22;23621;50.878;4.584;2022-08-14T02:47:40;26.70;51.70
37782;DHT22;23621;50.878;4.584;2022-08-14T02:50:06;26.70;51.70
37782;DHT22;23621;50.878;4.584;2022-08-14T02:52:32;26.70;51.80
37782;DHT22;23621;50.878;4.584;2022-08-14T02:54:59;26.70;51.90
37782;DHT22;23621;50.878;4.584;2022-08-14T02:57:29;26.70;52.00
37782;DHT22;23621;50.878;4.584;2022-08-14T02:59:55;26.70;52.00
37782;DHT22;23621;50.878;4.584;2022-08-14T03:02:21;26.60;52.00
37782;DHT22;23621;50.878;4.584;2022-08-14T03:04:47;26.60;52.10
37782;DHT22;23621;50.878;4.584;2022-08-14T03:07:12;26.60;52.20
37782;DHT22;23621;50.878;4.584;2022-08-14T03:09:41;26.60;52.30
37782;DHT22;23621;50.878;4.584;2022-08-14T03:12:07;26.50;52.30
37782;DHT22;23621;50.878;4.584;2022-08-14T03:14:32;26.50;52.50
37782;DHT22;23621;50.878;4.584;2022-08-14T03:17:04;26.50;52.60
37782;DHT22;23621;50.878;4.584;2022-08-14T03:19:34;26.40;52.60
37782;DHT22;23621;50.878;4.584;2022-08-14T03:22:00;26.40;52.80
37782;DHT22;23621;50.878;4.584;2022-08-14T03:24:26;26.40;52.90
37782;DHT22;23621;50.878;4.584;2022-08-14T03:26:51;26.30;52.90
37782;DHT22;23621;50.878;4.584;2022-08-14T03:29:20;26.30;53.10
37782;DHT22;23621;50.878;4.584;2022-08-14T03:31:46;26.30;53.10
37782;DHT22;23621;50.878;4.584;2022-08-14T03:34:17;26.30;53.10
37782;DHT22;23621;50.878;4.584;2022-08-14T03:36:43;26.20;52.90
37782;DHT22;23621;50.878;4.584;2022-08-14T03:39:10;26.30;53.60
37782;DHT22;23621;50.878;4.584;2022-08-14T03:41:36;26.30;52.90
37782;DHT22;23621;50.878;4.584;2022-08-14T03:44:04;26.30;53.00
37782;DHT22;23621;50.878;4.584;2022-08-14T03:46:32;26.30;53.10
37782;DHT22;23621;50.878;4.584;2022-08-14T03:48:59;26.20;53.20
37782;DHT22;23621;50.878;4.584;2022-08-14T03:51:27;26.20;53.20
37782;DHT22;23621;50.878;4.584;2022-08-14T03:53:55;26.20;53.10
37782;DHT22;23621;50.878;4.584;2022-08-14T03:56:22;26.20;53.10
37782;DHT22;23621;50.878;4.584;2022-08-14T03:58:50;26.30;53.20
37782;DHT22;23621;50.878;4.584;2022-08-14T04:01:18;26.20;53.30
37782;DHT22;23621;50.878;4.584;2022-08-14T04:03:46;26.20;53.30
37782;DHT22;23621;50.878;4.584;2022-08-14T04:06:12;26.20;53.30
37782;DHT22;23621;50.878;4.584;2022-08-14T04:08:39;26.20;53.40
37782;DHT22;23621;50.878;4.584;2022-08-14T04:11:07;26.10;53.50
37782;DHT22;23621;50.878;4.584;2022-08-14T04:13:37;26.10;53.50
37782;DHT22;23621;50.878;4.584;2022-08-14T04:16:06;26.10;53.50
37782;DHT22;23621;50.878;4.584;2022-08-14T04:18:32;26.10;53.50
37782;DHT22;23621;50.878;4.584;2022-08-14T04:20:58;26.10;53.60
37782;DHT22;23621;50.878;4.584;2022-08-14T04:23:24;26.10;53.60
37782;DHT22;23621;50.878;4.584;2022-08-14T04:25:51;26.10;53.60
37782;DHT22;23621;50.878;4.584;2022-08-14T04:28:20;26.00;53.60
37782;DHT22;23621;50.878;4.584;2022-08-14T04:30:46;26.00;53.70
37782;DHT22;23621;50.878;4.584;2022-08-14T04:33:12;25.90;53.80
37782;DHT22;23621;50.878;4.584;2022-08-14T04:35:39;25.80;54.00
37782;DHT22;23621;50.878;4.584;2022-08-14T04:38:06;25.80;54.10
37782;DHT22;23621;50.878;4.584;2022-08-14T04:40:50;25.80;54.20
37782;DHT22;23621;50.878;4.584;2022-08-14T04:43:34;25.80;54.20
37782;DHT22;23621;50.878;4.584;2022-08-14T04:46:09;25.80;54.20
37782;DHT22;23621;50.878;4.584;2022-08-14T04:48:36;25.80;54.20
37782;DHT22;23621;50.878;4.584;2022-08-14T04:51:13;25.80;54.20
37782;DHT22;23621;50.878;4.584;2022-08-14T04:53:41;25.80;54.20
37782;DHT22;23621;50.878;4.584;2022-08-14T04:56:08;25.80;54.20
37782;DHT22;23621;50.878;4.584;2022-08-14T04:58:35;25.80;54.30
37782;DHT22;23621;50.878;4.584;2022-08-14T05:01:03;25.80;54.50
37782;DHT22;23621;50.878;4.584;2022-08-14T05:03:32;25.80;55.20
37782;DHT22;23621;50.878;4.584;2022-08-14T05:06:03;25.80;54.70
37782;DHT22;23621;50.878;4.584;2022-08-14T05:08:29;25.80;54.80
37782;DHT22;23621;50.878;4.584;2022-08-14T05:10:57;25.80;54.90
37782;DHT22;23621;50.878;4.584;2022-08-14T05:13:25;25.80;54.90
37782;DHT22;23621;50.878;4.584;2022-08-14T05:15:54;25.80;55.00
37782;DHT22;23621;50.878;4.584;2022-08-14T05:18:22;25.80;55.20
37782;DHT22;23621;50.878;4.584;2022-08-14T05:20:51;25.80;55.40
37782;DHT22;23621;50.878;4.584;2022-08-14T05:23:22;25.80;55.50
37782;DHT22;23621;50.878;4.584;2022-08-14T05:25:49;25.80;55.60
37782;DHT22;23621;50.878;4.584;2022-08-14T05:28:21;25.70;55.60
37782;DHT22;23621;50.878;4.584;2022-08-14T05:31:05;25.70;55.80
37782;DHT22;23621;50.878;4.584;2022-08-14T05:33:32;25.70;56.00
37782;DHT22;23621;50.878;4.584;2022-08-14T05:36:01;25.70;56.00
37782;DHT22;23621;50.878;4.584;2022-08-14T05:38:32;25.70;56.10
37782;DHT22;23621;50.878;4.584;2022-08-14T05:41:04;25.70;56.20
37782;DHT22;23621;50.878;4.584;2022-08-14T05:43:30;25.60;56.20
37782;DHT22;23621;50.878;4.584;2022-08-14T05:45:57;25.70;56.20
37782;DHT22;23621;50.878;4.584;2022-08-14T05:48:24;25.80;56.30
37782;DHT22;23621;50.878;4.584;2022-08-14T05:50:50;25.80;56.20
37782;DHT22;23621;50.878;4.584;2022-08-14T05:53:16;25.80;56.00
37782;DHT22;23621;50.878;4.584;2022-08-14T05:55:42;25.90;55.90
37782;DHT22;23621;50.878;4.584;2022-08-14T05:58:08;26.00;55.80
37782;DHT22;23621;50.878;4.584;2022-08-14T06:00:39;26.00;55.80
37782;DHT22;23621;50.878;4.584;2022-08-14T06:03:11;26.10;56.00
37782;DHT22;23621;50.878;4.584;2022-08-14T06:05:40;26.10;56.10
37782;DHT22;23621;50.878;4.584;2022-08-14T06:08:16;26.10;56.10
37782;DHT22;23621;50.878;4.584;2022-08-14T06:10:42;26.20;56.10
37782;DHT22;23621;50.878;4.584;2022-08-14T06:13:08;26.20;55.90
37782;DHT22;23621;50.878;4.584;2022-08-14T06:15:34;26.30;55.80
37782;DHT22;23621;50.878;4.584;2022-08-14T06:17:59;26.30;55.80
37782;DHT22;23621;50.878;4.584;2022-08-14T06:20:26;26.30;55.70
37782;DHT22;23621;50.878;4.584;2022-08-14T06:22:52;26.40;55.70
37782;DHT22;23621;50.878;4.584;2022-08-14T06:25:17;26.40;55.40
37782;DHT22;23621;50.878;4.584;2022-08-14T06:27:47;26.50;55.00
37782;DHT22;23621;50.878;4.584;2022-08-14T06:30:18;26.60;54.70
37782;DHT22;23621;50.878;4.584;2022-08-14T06:32:45;26.60;54.50
37782;DHT22;23621;50.878;4.584;2022-08-14T06:35:12;26.60;54.30
37782;DHT22;23621;50.878;4.584;2022-08-14T06:37:56;26.70;54.10
37782;DHT22;23621;50.878;4.584;2022-08-14T06:40:33;26.70;53.90
37782;DHT22;23621;50.878;4.584;2022-08-14T06:43:08;26.70;53.90
37782;DHT22;23621;50.878;4.584;2022-08-14T06:45:35;26.80;53.80
37782;DHT22;23621;50.878;4.584;2022-08-14T06:48:01;26.80;53.50
37782;DHT22;23621;50.878;4.584;2022-08-14T06:50:28;26.80;53.10
37782;DHT22;23621;50.878;4.584;2022-08-14T06:52:54;26.90;52.80
37782;DHT22;23621;50.878;4.584;2022-08-14T06:55:20;26.90;52.80
37782;DHT22;23621;50.878;4.584;2022-08-14T06:57:50;27.00;52.90
37782;DHT22;23621;50.878;4.584;2022-08-14T07:00:19;27.10;52.90
37782;DHT22;23621;50.878;4.584;2022-08-14T07:02:45;27.10;52.80
37782;DHT22;23621;50.878;4.584;2022-08-14T07:05:30;27.20;52.80
37782;DHT22;23621;50.878;4.584;2022-08-14T07:08:24;27.20;52.90
37782;DHT22;23621;50.878;4.584;2022-08-14T07:10:56;27.30;53.10
37782;DHT22;23621;50.878;4.584;2022-08-14T07:13:23;27.40;53.10
37782;DHT22;23621;50.878;4.584;2022-08-14T07:15:53;27.40;53.00
37782;DHT22;23621;50.878;4.584;2022-08-14T07:18:24;27.50;53.10
37782;DHT22;23621;50.878;4.584;2022-08-14T07:20:51;27.60;53.30
37782;DHT22;23621;50.878;4.584;2022-08-14T07:23:18;27.70;53.20
37782;DHT22;23621;50.878;4.584;2022-08-14T07:25:44;27.70;52.70
37782;DHT22;23621;50.878;4.584;2022-08-14T07:28:13;27.80;52.60
37782;DHT22;23621;50.878;4.584;2022-08-14T07:30:39;27.90;52.30
37782;DHT22;23621;50.878;4.584;2022-08-14T07:33:06;27.90;52.20
37782;DHT22;23621;50.878;4.584;2022-08-14T07:35:33;28.00;52.10
37782;DHT22;23621;50.878;4.584;2022-08-14T07:37:59;28.10;52.20
37782;DHT22;23621;50.878;4.584;2022-08-14T07:40:25;28.20;52.20
37782;DHT22;23621;50.878;4.584;2022-08-14T07:42:51;28.30;52.00
37782;DHT22;23621;50.878;4.584;2022-08-14T07:45:17;28.40;52.20
37782;DHT22;23621;50.878;4.584;2022-08-14T07:47:43;28.50;52.30
37782;DHT22;23621;50.878;4.584;2022-08-14T07:50:14;28.60;52.20
37782;DHT22;23621;50.878;4.584;2022-08-14T07:52:44;28.70;51.90
37782;DHT22;23621;50.878;4.584;2022-08-14T07:55:12;28.80;51.40
37782;DHT22;23621;50.878;4.584;2022-08-14T07:57:39;28.80;51.10
37782;DHT22;23621;50.878;4.584;2022-08-14T08:00:14;28.90;50.70
37782;DHT22;23621;50.878;4.584;2022-08-14T08:02:42;29.00;50.80
37782;DHT22;23621;50.878;4.584;2022-08-14T08:05:10;29.10;50.90
37782;DHT22;23621;50.878;4.584;2022-08-14T08:07:37;29.20;50.60
37782;DHT22;23621;50.878;4.584;2022-08-14T08:10:12;29.30;50.40
37782;DHT22;23621;50.878;4.584;2022-08-14T08:13:08;29.40;50.60
37782;DHT22;23621;50.878;4.584;2022-08-14T08:15:45;29.50;50.50
37782;DHT22;23621;50.878;4.584;2022-08-14T08:18:12;29.50;50.70
37782;DHT22;23621;50.878;4.584;2022-08-14T08:20:57;29.70;50.70
37782;DHT22;23621;50.878;4.584;2022-08-14T08:23:23;29.80;50.80
37782;DHT22;23621;50.878;4.584;2022-08-14T08:25:51;29.80;50.50
37782;DHT22;23621;50.878;4.584;2022-08-14T08:28:22;30.00;50.20
37782;DHT22;23621;50.878;4.584;2022-08-14T08:30:58;30.00;49.20
37782;DHT22;23621;50.878;4.584;2022-08-14T08:33:26;30.20;48.50
37782;DHT22;23621;50.878;4.584;2022-08-14T08:35:52;30.30;48.90
37782;DHT22;23621;50.878;4.584;2022-08-14T08:38:22;30.40;48.70
37782;DHT22;23621;50.878;4.584;2022-08-14T08:40:49;30.50;48.40
37782;DHT22;23621;50.878;4.584;2022-08-14T08:45:41;30.80;48.20
37782;DHT22;23621;50.878;4.584;2022-08-14T08:48:06;30.80;49.20
37782;DHT22;23621;50.878;4.584;2022-08-14T08:50:37;30.90;49.10
37782;DHT22;23621;50.878;4.584;2022-08-14T08:53:08;31.00;48.80
37782;DHT22;23621;50.878;4.584;2022-08-14T08:55:40;31.10;48.50
37782;DHT22;23621;50.878;4.584;2022-08-14T08:58:15;31.20;48.60
37782;DHT22;23621;50.878;4.584;2022-08-14T09:00:46;31.30;48.90
37782;DHT22;23621;50.878;4.584;2022-08-14T09:03:14;31.30;48.50
37782;DHT22;23621;50.878;4.584;2022-08-14T09:06:03;31.40;48.40
37782;DHT22;23621;50.878;4.584;2022-08-14T09:08:34;31.40;48.30
37782;DHT22;23621;50.878;4.584;2022-08-14T09:11:03;31.40;48.30
37782;DHT22;23621;50.878;4.584;2022-08-14T09:13:29;31.40;48.60
37782;DHT22;23621;50.878;4.584;2022-08-14T09:15:55;31.40;48.70
37782;DHT22;23621;50.878;4.584;2022-08-14T09:18:45;31.50;48.70
37782;DHT22;23621;50.878;4.584;2022-08-14T09:21:12;31.30;49.30
37782;DHT22;23621;50.878;4.584;2022-08-14T09:23:37;31.40;49.50
37782;DHT22;23621;50.878;4.584;2022-08-14T09:26:04;31.50;50.00
37782;DHT22;23621;50.878;4.584;2022-08-14T09:28:30;31.50;50.00
37782;DHT22;23621;50.878;4.584;2022-08-14T09:30:58;31.50;50.20
37782;DHT22;23621;50.878;4.584;2022-08-14T09:39:04;31.80;50.20
37782;DHT22;23621;50.878;4.584;2022-08-14T09:41:46;31.70;50.40
37782;DHT22;23621;50.878;4.584;2022-08-14T09:44:59;31.80;49.70
37782;DHT22;23621;50.878;4.584;2022-08-14T09:47:51;31.80;49.60
37782;DHT22;23621;50.878;4.584;2022-08-14T09:51:05;31.80;50.20
37782;DHT22;23621;50.878;4.584;2022-08-14T09:53:42;31.90;49.60
37782;DHT22;23621;50.878;4.584;2022-08-14T09:56:12;32.00;49.00
37782;DHT22;23621;50.878;4.584;2022-08-14T09:58:42;32.10;48.40
37782;DHT22;23621;50.878;4.584;2022-08-14T10:01:14;32.10;48.40
37782;DHT22;23621;50.878;4.584;2022-08-14T10:03:55;32.10;48.40
37782;DHT22;23621;50.878;4.584;2022-08-14T10:06:26;32.20;48.80
37782;DHT22;23621;50.878;4.584;2022-08-14T10:09:04;32.20;48.50
37782;DHT22;23621;50.878;4.584;2022-08-14T10:11:33;32.20;48.20
37782;DHT22;23621;50.878;4.584;2022-08-14T10:14:21;32.30;47.40
37782;DHT22;23621;50.878;4.584;2022-08-14T10:16:51;32.30;47.50
37782;DHT22;23621;50.878;4.584;2022-08-14T10:19:19;32.30;46.90
37782;DHT22;23621;50.878;4.584;2022-08-14T10:22:24;32.30;46.90
37782;DHT22;23621;50.878;4.584;2022-08-14T10:24:54;32.40;46.20
37782;DHT22;23621;50.878;4.584;2022-08-14T10:27:23;32.40;46.10
37782;DHT22;23621;50.878;4.584;2022-08-14T10:29:54;32.60;45.80
37782;DHT22;23621;50.878;4.584;2022-08-14T10:32:20;32.70;46.10
37782;DHT22;23621;50.878;4.584;2022-08-14T10:34:48;32.80;45.30
37782;DHT22;23621;50.878;4.584;2022-08-14T10:37:15;32.80;44.30
37782;DHT22;23621;50.878;4.584;2022-08-14T10:39:58;32.90;43.60
37782;DHT22;23621;50.878;4.584;2022-08-14T10:42:38;33.00;43.80
37782;DHT22;23621;50.878;4.584;2022-08-14T10:45:19;33.10;43.50
37782;DHT22;23621;50.878;4.584;2022-08-14T10:47:46;33.10;42.30
37782;DHT22;23621;50.878;4.584;2022-08-14T10:50:14;33.20;42.50
37782;DHT22;23621;50.878;4.584;2022-08-14T10:52:40;33.20;42.70
37782;DHT22;23621;50.878;4.584;2022-08-14T10:55:12;33.30;41.30
37782;DHT22;23621;50.878;4.584;2022-08-14T10:57:50;33.40;40.30
37782;DHT22;23621;50.878;4.584;2022-08-14T11:00:19;33.40;40.10
37782;DHT22;23621;50.878;4.584;2022-08-14T11:02:59;33.50;40.40
37782;DHT22;23621;50.878;4.584;2022-08-14T11:05:36;33.60;39.70
37782;DHT22;23621;50.878;4.584;2022-08-14T11:08:03;33.60;39.40
37782;DHT22;23621;50.878;4.584;2022-08-14T11:10:42;33.70;39.20
37782;DHT22;23621;50.878;4.584;2022-08-14T11:13:09;33.70;39.10
37782;DHT22;23621;50.878;4.584;2022-08-14T11:15:35;33.80;38.90
37782;DHT22;23621;50.878;4.584;2022-08-14T11:18:01;33.90;39.30
37782;DHT22;23621;50.878;4.584;2022-08-14T11:20:31;34.00;39.20
37782;DHT22;23621;50.878;4.584;2022-08-14T11:22:58;34.10;39.00
37782;DHT22;23621;50.878;4.584;2022-08-14T11:25:27;34.10;38.40
37782;DHT22;23621;50.878;4.584;2022-08-14T11:27:55;34.20;37.90
37782;DHT22;23621;50.878;4.584;2022-08-14T11:30:24;34.20;37.50
37782;DHT22;23621;50.878;4.584;2022-08-14T11:32:51;34.20;37.30
37782;DHT22;23621;50.878;4.584;2022-08-14T11:35:22;34.20;36.80
37782;DHT22;23621;50.878;4.584;2022-08-14T11:37:59;34.40;37.00
37782;DHT22;23621;50.878;4.584;2022-08-14T11:40:28;34.40;36.90
37782;DHT22;23621;50.878;4.584;2022-08-14T11:42:55;34.40;36.90
37782;DHT22;23621;50.878;4.584;2022-08-14T11:45:27;34.50;37.10
37782;DHT22;23621;50.878;4.584;2022-08-14T11:47:55;34.50;36.90
37782;DHT22;23621;50.878;4.584;2022-08-14T11:50:28;34.50;38.10
37782;DHT22;23621;50.878;4.584;2022-08-14T11:52:55;34.50;36.70
37782;DHT22;23621;50.878;4.584;2022-08-14T11:55:23;34.50;36.80
37782;DHT22;23621;50.878;4.584;2022-08-14T11:57:59;34.60;36.50
37782;DHT22;23621;50.878;4.584;2022-08-14T12:00:25;34.70;35.80
37782;DHT22;23621;50.878;4.584;2022-08-14T12:02:56;34.70;35.70
37782;DHT22;23621;50.878;4.584;2022-08-14T12:05:36;34.70;36.50
37782;DHT22;23621;50.878;4.584;2022-08-14T12:08:04;34.80;37.00
37782;DHT22;23621;50.878;4.584;2022-08-14T12:10:35;34.80;36.30
37782;DHT22;23621;50.878;4.584;2022-08-14T12:13:18;34.90;36.00
37782;DHT22;23621;50.878;4.584;2022-08-14T12:15:46;34.90;35.50
37782;DHT22;23621;50.878;4.584;2022-08-14T12:18:31;35.00;35.50
37782;DHT22;23621;50.878;4.584;2022-08-14T12:20:57;35.10;34.90
37782;DHT22;23621;50.878;4.584;2022-08-14T12:23:24;35.10;35.20
37782;DHT22;23621;50.878;4.584;2022-08-14T12:26:17;35.10;35.10
37782;DHT22;23621;50.878;4.584;2022-08-14T12:28:50;35.10;35.30
37782;DHT22;23621;50.878;4.584;2022-08-14T12:31:18;35.30;35.40
37782;DHT22;23621;50.878;4.584;2022-08-14T12:33:59;35.30;35.20
37782;DHT22;23621;50.878;4.584;2022-08-14T12:36:25;35.30;35.10
37782;DHT22;23621;50.878;4.584;2022-08-14T12:38:58;35.40;34.70
37782;DHT22;23621;50.878;4.584;2022-08-14T12:41:28;35.50;34.80
37782;DHT22;23621;50.878;4.584;2022-08-14T12:43:59;35.50;34.90
37782;DHT22;23621;50.878;4.584;2022-08-14T12:46:37;35.50;35.20
37782;DHT22;23621;50.878;4.584;2022-08-14T12:49:10;35.50;34.80
37782;DHT22;23621;50.878;4.584;2022-08-14T12:51:38;35.50;34.70
37782;DHT22;23621;50.878;4.584;2022-08-14T12:54:15;35.50;34.90
37782;DHT22;23621;50.878;4.584;2022-08-14T12:56:42;35.60;35.10
37782;DHT22;23621;50.878;4.584;2022-08-14T12:59:10;35.70;34.30
37782;DHT22;23621;50.878;4.584;2022-08-14T13:01:37;35.80;34.20
37782;DHT22;23621;50.878;4.584;2022-08-14T13:04:13;35.90;34.80
37782;DHT22;23621;50.878;4.584;2022-08-14T13:06:44;36.00;34.70
37782;DHT22;23621;50.878;4.584;2022-08-14T13:09:13;36.00;34.70
37782;DHT22;23621;50.878;4.584;2022-08-14T13:11:48;36.00;34.30
37782;DHT22;23621;50.878;4.584;2022-08-14T13:14:18;36.00;34.30
37782;DHT22;23621;50.878;4.584;2022-08-14T13:16:45;36.00;34.20
37782;DHT22;23621;50.878;4.584;2022-08-14T13:19:14;36.00;34.40
37782;DHT22;23621;50.878;4.584;2022-08-14T13:21:41;36.00;34.80
37782;DHT22;23621;50.878;4.584;2022-08-14T13:24:08;36.00;34.80
37782;DHT22;23621;50.878;4.584;2022-08-14T13:26:37;36.00;34.50
37782;DHT22;23621;50.878;4.584;2022-08-14T13:29:06;36.10;34.20
37782;DHT22;23621;50.878;4.584;2022-08-14T13:31:34;36.10;35.20
37782;DHT22;23621;50.878;4.584;2022-08-14T13:34:02;36.10;34.10
37782;DHT22;23621;50.878;4.584;2022-08-14T13:36:27;36.20;33.80
37782;DHT22;23621;50.878;4.584;2022-08-14T13:38:53;36.20;33.60
37782;DHT22;23621;50.878;4.584;2022-08-14T13:41:20;36.30;33.30
37782;DHT22;23621;50.878;4.584;2022-08-14T13:43:48;36.40;33.60
37782;DHT22;23621;50.878;4.584;2022-08-14T13:46:14;36.50;34.20
37782;DHT22;23621;50.878;4.584;2022-08-14T13:48:40;36.50;34.40
37782;DHT22;23621;50.878;4.584;2022-08-14T13:51:06;36.50;33.00
37782;DHT22;23621;50.878;4.584;2022-08-14T13:53:38;36.60;32.90
37782;DHT22;23621;50.878;4.584;2022-08-14T13:56:10;36.60;32.20
37782;DHT22;23621;50.878;4.584;2022-08-14T13:58:36;36.60;33.70
37782;DHT22;23621;50.878;4.584;2022-08-14T14:01:02;36.70;34.70
37782;DHT22;23621;50.878;4.584;2022-08-14T14:03:28;36.70;34.30
37782;DHT22;23621;50.878;4.584;2022-08-14T14:05:55;36.70;33.40
37782;DHT22;23621;50.878;4.584;2022-08-14T14:08:22;36.80;33.30
37782;DHT22;23621;50.878;4.584;2022-08-14T14:10:48;36.80;33.40
37782;DHT22;23621;50.878;4.584;2022-08-14T14:13:16;36.80;33.00
37782;DHT22;23621;50.878;4.584;2022-08-14T14:15:43;36.70;32.90
37782;DHT22;23621;50.878;4.584;2022-08-14T14:18:09;36.80;33.40
37782;DHT22;23621;50.878;4.584;2022-08-14T14:20:35;36.80;33.00
37782;DHT22;23621;50.878;4.584;2022-08-14T14:23:00;36.70;32.70
37782;DHT22;23621;50.878;4.584;2022-08-14T14:25:26;36.70;32.30
37782;DHT22;23621;50.878;4.584;2022-08-14T14:27:54;36.70;32.30
37782;DHT22;23621;50.878;4.584;2022-08-14T14:30:22;36.80;34.20
37782;DHT22;23621;50.878;4.584;2022-08-14T14:32:50;36.70;33.50
37782;DHT22;23621;50.878;4.584;2022-08-14T14:35:17;36.70;33.90
37782;DHT22;23621;50.878;4.584;2022-08-14T14:37:47;36.80;33.10
37782;DHT22;23621;50.878;4.584;2022-08-14T14:40:14;36.80;32.90
37782;DHT22;23621;50.878;4.584;2022-08-14T14:42:48;36.80;33.20
37782;DHT22;23621;50.878;4.584;2022-08-14T14:45:16;36.80;33.30
37782;DHT22;23621;50.878;4.584;2022-08-14T14:47:46;36.80;33.60
37782;DHT22;23621;50.878;4.584;2022-08-14T14:50:12;36.80;33.00
37782;DHT22;23621;50.878;4.584;2022-08-14T14:52:39;36.80;33.60
37782;DHT22;23621;50.878;4.584;2022-08-14T14:55:06;36.80;33.10
37782;DHT22;23621;50.878;4.584;2022-08-14T14:57:33;36.80;33.20
37782;DHT22;23621;50.878;4.584;2022-08-14T14:59:59;36.90;33.40
37782;DHT22;23621;50.878;4.584;2022-08-14T15:02:37;37.00;33.40
37782;DHT22;23621;50.878;4.584;2022-08-14T15:05:06;37.00;34.60
37782;DHT22;23621;50.878;4.584;2022-08-14T15:07:33;37.20;33.80
37782;DHT22;23621;50.878;4.584;2022-08-14T15:09:58;37.20;32.20
37782;DHT22;23621;50.878;4.584;2022-08-14T15:12:24;37.10;33.30
37782;DHT22;23621;50.878;4.584;2022-08-14T15:14:50;37.10;33.00
37782;DHT22;23621;50.878;4.584;2022-08-14T15:17:16;37.10;33.50
37782;DHT22;23621;50.878;4.584;2022-08-14T15:19:42;37.20;34.20
37782;DHT22;23621;50.878;4.584;2022-08-14T15:22:09;37.20;34.00
37782;DHT22;23621;50.878;4.584;2022-08-14T15:24:36;37.20;34.10
37782;DHT22;23621;50.878;4.584;2022-08-14T15:27:02;37.20;33.90
37782;DHT22;23621;50.878;4.584;2022-08-14T15:29:31;37.20;31.90
37782;DHT22;23621;50.878;4.584;2022-08-14T15:31:57;37.20;34.20
37782;DHT22;23621;50.878;4.584;2022-08-14T15:34:23;37.10;32.70
37782;DHT22;23621;50.878;4.584;2022-08-14T15:36:49;37.00;32.20
37782;DHT22;23621;50.878;4.584;2022-08-14T15:39:15;37.00;32.90
37782;DHT22;23621;50.878;4.584;2022-08-14T15:41:41;37.00;33.40
37782;DHT22;23621;50.878;4.584;2022-08-14T15:44:07;37.00;33.30
37782;DHT22;23621;50.878;4.584;2022-08-14T15:46:36;36.90;33.60
37782;DHT22;23621;50.878;4.584;2022-08-14T15:49:02;36.80;33.00
37782;DHT22;23621;50.878;4.584;2022-08-14T15:51:28;36.80;32.70
37782;DHT22;23621;50.878;4.584;2022-08-14T15:53:56;36.80;32.20